CheckWX is a tool to help pilots better visualize weather data.  It is not intended as a substitute for an official pre-flight weather briefing.

01:51:16 UTC

VTSG TAF
Krabi Airport
Krabi, Thailand
TAF VTSG 182300Z 1900/1924 03004KT 7000 FEW020 BECMG 1900/1902 9999 BECMG 1902/1904 10008KT TEMPO 1910/1914 VRB10G20KT 5000 TSRA FEW018CB SCT020 BKN100 BECMG 1914/1916 03004KT 8000

Mar-19@
00:00 UTC

Mar-19 @ 00:00 UTC

Mar-20@
00:00 UTC

Mar-20 @ 00:00 UTC

TAF VTSG 182300Z 1900/1924 03004KT 7000 FEW020
Wind
  • 030° at 4 KTS
Cloud Levels
  • Few at 2,000' AGL

Mar-19@
00:00 UTC

Mar-19 @ 00:00 UTC

Mar-19@
02:00 UTC

Mar-19 @ 02:00 UTC

BECMG 1900/1902 9999

Becoming

Becoming Conditions expected by Tue, Mar 19, 2019 @ 02:00 UTC

Wind
  • 030° at 4 KTS
Cloud Levels
  • Few at 2,000' AGL

Mar-19@
02:00 UTC

Mar-19 @ 02:00 UTC

Mar-19@
14:00 UTC

Mar-19 @ 14:00 UTC

BECMG 1902/1904 10008KT

Becoming

Becoming Conditions expected by Tue, Mar 19, 2019 @ 04:00 UTC

Wind
  • 100° at 8 KTS
Cloud Levels
  • Few at 2,000' AGL

Mar-19@
10:00 UTC

Mar-19 @ 10:00 UTC

Mar-19@
14:00 UTC

Mar-19 @ 14:00 UTC

TEMPO 1910/1914 VRB10G20KT 5000 TSRA FEW018CB SCT020 BKN100

Temporary

Temporary Changes expected for less than half the time period

Wind
  • Variable at 10 KTS
  • {Gusting to 20 KTS
Conditions
Thunderstorm, Rain
Cloud Levels
  • Few at 1,800' AGL
  • Scattered at 2,000' AGL
  • Broken at 10,000' AGL

Mar-19@
14:00 UTC

Mar-19 @ 14:00 UTC

Mar-20@
00:00 UTC

Mar-20 @ 00:00 UTC

BECMG 1914/1916 03004KT 8000

Becoming

Becoming Conditions expected by Tue, Mar 19, 2019 @ 16:00 UTC

Wind
  • 030° at 4 KTS
Cloud Levels
  • Few at 2,000' AGL